Time;durP1;ratioP1;P1;durP2;ratioP2;P2;SDS_P1;SDS_P2;PMS_P1;PMS_P2;Temp;Humidity;BMP_temperature;BMP_pressure;BME280_temperature;BME280_humidity;BME280_pressure;Samples;Min_cycle;Max_cycle;Signal;HPM_P1;HPM_P2
2022/09/28 00:01:21;;;;;;;9.95;5.95;;;;;;;10.44;80.37;95584.08;1750243;80;26558;-75
2022/09/28 00:03:50;;;;;;;9.05;5.75;;;;;;;10.44;80.33;95595.40;1684952;84;25958;-74
2022/09/28 00:06:53;;;;;;;7.75;5.70;;;;;;;10.43;80.35;95590.53;1668380;85;26553;-76
2022/09/28 00:12:42;;;;;;;8.03;5.90;;;;;;;10.38;80.43;95596.42;1692693;84;25820;-76
2022/09/28 00:15:11;;;;;;;7.65;5.78;;;;;;;10.36;80.43;95599.38;1668582;85;25839;-74
2022/09/28 00:17:37;;;;;;;10.28;5.92;;;;;;;10.32;80.40;95598.77;1692988;84;25835;-75
2022/09/28 00:20:05;;;;;;;7.62;5.65;;;;;;;10.30;80.46;95593.63;1692901;84;27376;-75
2022/09/28 00:22:31;;;;;;;11.65;5.62;;;;;;;10.29;80.45;95590.65;1668359;85;25742;-74
2022/09/28 00:24:58;;;;;;;7.65;5.80;;;;;;;10.29;80.43;95593.34;1692941;84;27063;-75
2022/09/28 00:27:25;;;;;;;7.65;5.45;;;;;;;10.27;80.43;95578.48;1692704;84;25993;-74
2022/09/28 00:29:52;;;;;;;10.82;6.40;;;;;;;10.27;80.33;95586.04;1668378;85;25678;-75
2022/09/28 00:32:20;;;;;;;7.25;5.55;;;;;;;10.26;80.19;95576.34;1692884;84;27728;-74
2022/09/28 00:34:47;;;;;;;8.73;5.90;;;;;;;10.24;80.10;95566.34;1692929;84;25741;-75
2022/09/28 00:37:15;;;;;;;8.35;5.15;;;;;;;10.21;80.05;95564.68;1668478;85;26609;-74
2022/09/28 00:39:42;;;;;;;6.28;4.83;;;;;;;10.17;79.89;95556.24;1689013;84;25741;-75
2022/09/28 00:42:19;;;;;;;6.92;4.75;;;;;;;10.14;79.74;95560.00;1641515;86;25888;-76
2022/09/28 00:44:55;;;;;;;9.80;5.87;;;;;;;10.09;79.66;95560.75;1639792;87;28205;-74
2022/09/28 00:47:49;;;;;;;7.83;5.97;;;;;;;10.04;79.55;95563.38;1616949;88;25810;-75
2022/09/28 00:50:24;;;;;;;9.93;6.22;;;;;;;9.96;79.44;95561.14;1595271;88;25778;-75
2022/09/28 00:53:14;;;;;;;11.30;6.05;;;;;;;9.87;79.41;95562.66;1537909;91;25938;-74
2022/09/28 00:55:54;;;;;;;11.85;6.17;;;;;;;9.83;79.49;95561.52;1538226;92;25764;-75
2022/09/28 00:58:26;;;;;;;7.12;5.00;;;;;;;9.78;79.42;95564.16;1538170;91;28102;-75
2022/09/28 01:00:58;;;;;;;13.18;5.30;;;;;;;9.73;79.35;95564.91;1581642;89;26025;-76
2022/09/28 01:03:27;;;;;;;8.47;4.90;;;;;;;9.59;79.07;95567.16;1649804;86;25846;-75
2022/09/28 01:05:58;;;;;;;8.20;4.40;;;;;;;9.46;79.20;95561.31;1649694;86;25850;-76
2022/09/28 01:08:27;;;;;;;7.33;4.72;;;;;;;9.43;79.33;95563.96;1667522;85;25756;-75
2022/09/28 01:10:55;;;;;;;6.83;4.30;;;;;;;9.40;79.33;95567.17;1677069;85;27588;-76
2022/09/28 01:13:23;;;;;;;8.08;5.08;;;;;;;9.39;79.34;95566.89;1677072;85;25382;-76
2022/09/28 01:16:10;;;;;;;10.90;5.50;;;;;;;9.32;79.29;95567.05;1677153;85;25788;-76
2022/09/28 01:19:14;;;;;;;14.33;4.97;;;;;;;9.28;79.34;95563.77;1655708;86;25769;-75
2022/09/28 01:22:03;;;;;;;7.42;4.87;;;;;;;9.17;79.28;95569.55;1677119;85;25721;-74
2022/09/28 01:24:44;;;;;;;10.70;5.20;;;;;;;9.07;79.58;95572.59;1604640;89;27362;-75
2022/09/28 01:27:40;;;;;;;5.72;4.10;;;;;;;9.02;79.90;95571.47;1604422;89;25720;-75
2022/09/28 01:30:11;;;;;;;8.13;5.03;;;;;;;9.03;80.24;95566.38;1576061;91;26580;-74
2022/09/28 01:32:59;;;;;;;8.78;5.45;;;;;;;9.07;80.43;95566.67;1613758;88;25948;-74
2022/09/28 01:35:34;;;;;;;8.98;4.28;;;;;;;9.02;80.47;95562.05;1612201;88;25815;-74
2022/09/28 01:38:09;;;;;;;6.55;3.92;;;;;;;8.95;80.62;95562.73;1611693;88;27483;-76
2022/09/28 01:40:36;;;;;;;4.75;3.60;;;;;;;8.92;80.71;95563.77;1613449;88;26025;-76
2022/09/28 01:43:11;;;;;;;6.55;3.85;;;;;;;8.90;80.84;95564.02;1613371;88;25799;-74
2022/09/28 01:45:51;;;;;;;10.82;4.53;;;;;;;8.91;80.97;95558.11;1613020;88;26557;-75
2022/09/28 01:48:30;;;;;;;8.03;3.98;;;;;;;8.97;81.11;95558.45;1558085;92;25358;-74
2022/09/28 01:51:01;;;;;;;6.53;4.12;;;;;;;9.03;81.20;95559.64;1540350;92;28185;-76
2022/09/28 01:53:44;;;;;;;6.10;3.62;;;;;;;9.09;81.23;95563.74;1543510;92;25872;-74
2022/09/28 01:56:16;;;;;;;6.35;4.00;;;;;;;9.13;81.19;95563.02;1543491;92;25915;-74
2022/09/28 01:59:09;;;;;;;5.58;4.45;;;;;;;9.18;81.19;95564.95;1541202;92;25686;-73
2022/09/28 02:01:40;;;;;;;6.42;4.17;;;;;;;9.21;81.24;95571.19;1558529;90;25818;-75
2022/09/28 02:04:35;;;;;;;9.18;3.90;;;;;;;9.25;81.21;95577.19;1589006;90;28229;-75
2022/09/28 02:07:12;;;;;;;6.92;4.17;;;;;;;9.29;81.19;95582.91;1603983;88;25533;-78
2022/09/28 02:09:46;;;;;;;7.58;4.42;;;;;;;9.26;81.13;95583.39;1542457;91;25854;-79
2022/09/28 02:12:20;;;;;;;7.37;4.58;;;;;;;9.26;81.17;95579.35;1519712;93;25714;-80
2022/09/28 02:14:51;;;;;;;7.37;5.20;;;;;;;9.27;81.23;95582.33;1477441;96;25966;-77
2022/09/28 02:17:18;;;;;;;6.62;5.12;;;;;;;9.25;81.28;95589.84;1479226;96;27467;-78
2022/09/28 02:19:45;;;;;;;6.92;5.70;;;;;;;9.28;81.36;95597.42;1479300;96;25949;-77
2022/09/28 02:22:24;;;;;;;8.95;5.55;;;;;;;9.27;81.37;95595.80;1479522;96;25903;-78
2022/09/28 02:25:06;;;;;;;13.78;5.08;;;;;;;9.25;81.44;95595.22;1479514;95;26009;-78
2022/09/28 02:27:50;;;;;;;6.50;5.28;;;;;;;9.24;81.57;95592.24;1476308;96;25975;-76
2022/09/28 02:30:17;;;;;;;7.47;4.80;;;;;;;9.27;81.62;95596.61;1449727;97;27546;-77
2022/09/28 02:32:48;;;;;;;6.65;4.17;;;;;;;9.31;81.67;95600.42;1449490;98;25907;-77
2022/09/28 02:35:17;;;;;;;12.05;5.17;;;;;;;9.33;81.64;95594.79;1450074;98;25848;-77
2022/09/28 02:37:45;;;;;;;7.60;4.33;;;;;;;9.35;81.65;95597.53;1449736;98;25925;-77
2022/09/28 02:40:19;;;;;;;8.45;4.03;;;;;;;9.39;81.66;95597.86;1431761;98;25994;-80
2022/09/28 02:43:26;;;;;;;7.72;4.42;;;;;;;9.36;81.59;95606.42;1447936;98;28124;-80
2022/09/28 02:46:07;;;;;;;8.03;4.35;;;;;;;9.34;81.62;95609.36;1531825;92;25965;-78
2022/09/28 02:48:59;;;;;;;8.23;4.40;;;;;;;9.30;81.71;95609.55;1535178;93;25783;-77
2022/09/28 02:51:52;;;;;;;8.80;4.80;;;;;;;9.32;81.79;95607.97;1537839;93;26470;-77
2022/09/28 02:54:36;;;;;;;4.75;3.92;;;;;;;9.35;81.85;95602.09;1539718;91;25863;-77
2022/09/28 02:57:26;;;;;;;7.40;4.50;;;;;;;9.35;81.80;95602.09;1516318;93;27512;-77
2022/09/28 03:00:13;;;;;;;7.47;5.65;;;;;;;9.36;81.80;95600.51;1515163;94;25884;-77
2022/09/28 03:02:48;;;;;;;6.30;5.08;;;;;;;9.33;81.80;95599.64;1530644;93;25864;-75
2022/09/28 03:05:38;;;;;;;11.30;4.83;;;;;;;9.32;81.85;95609.31;1554072;92;25909;-76
2022/09/28 03:08:24;;;;;;;9.75;4.47;;;;;;;9.35;81.84;95607.48;1555268;90;25808;-75
2022/09/28 03:11:20;;;;;;;8.58;4.50;;;;;;;9.35;81.84;95603.44;1570357;90;27488;-75
2022/09/28 03:13:48;;;;;;;8.13;4.35;;;;;;;9.32;81.87;95595.85;1632478;86;25747;-76
2022/09/28 03:16:18;;;;;;;6.62;4.70;;;;;;;9.31;81.85;95595.56;1645563;87;25806;-75
2022/09/28 03:18:45;;;;;;;6.12;4.50;;;;;;;9.32;81.82;95591.81;1645433;87;26564;-75
2022/09/28 03:21:13;;;;;;;6.45;4.25;;;;;;;9.31;81.75;95592.88;1645441;87;25723;-76
2022/09/28 03:23:41;;;;;;;6.28;4.15;;;;;;;9.26;81.54;95590.94;1645528;87;28005;-76
2022/09/28 03:26:11;;;;;;;5.22;3.85;;;;;;;9.24;81.44;95589.55;1645202;87;25808;-75
2022/09/28 03:28:38;;;;;;;5.72;3.83;;;;;;;9.20;81.28;95595.95;1645357;87;25943;-75
2022/09/28 03:31:05;;;;;;;4.33;3.62;;;;;;;9.14;81.23;95596.13;1645323;85;25848;-75
2022/09/28 03:33:32;;;;;;;4.83;4.33;;;;;;;9.12;81.21;95595.55;1645340;87;25821;-76
2022/09/28 03:35:58;;;;;;;5.75;3.30;;;;;;;9.09;81.17;95591.47;1645560;87;27483;-74
2022/09/28 03:38:25;;;;;;;6.03;4.17;;;;;;;9.05;81.13;95592.23;1645305;87;25890;-75
2022/09/28 03:40:57;;;;;;;5.72;3.58;;;;;;;9.02;81.03;95601.08;1645448;87;25791;-76
2022/09/28 03:43:25;;;;;;;5.12;3.52;;;;;;;8.95;80.94;95595.02;1645523;87;25835;-76
2022/09/28 03:45:58;;;;;;;6.58;3.87;;;;;;;8.88;81.01;95602.45;1645353;87;25803;-77
2022/09/28 03:48:28;;;;;;;4.85;3.83;;;;;;;8.83;81.07;95600.20;1631315;87;27472;-76
2022/09/28 03:50:57;;;;;;;7.60;5.12;;;;;;;8.80;81.31;95600.18;1631173;87;26099;-75
2022/09/28 03:53:24;;;;;;;7.42;5.95;;;;;;;8.78;81.42;95604.16;1631178;87;25917;-74
2022/09/28 03:55:54;;;;;;;7.70;5.40;;;;;;;8.79;81.45;95599.89;1631275;87;25973;-77
2022/09/28 03:58:22;;;;;;;7.85;4.85;;;;;;;8.81;81.42;95601.00;1656542;86;25786;-77
2022/09/28 04:00:50;;;;;;;9.63;4.35;;;;;;;8.74;81.25;95607.05;1658106;86;27671;-76
2022/09/28 04:03:17;;;;;;;5.25;4.70;;;;;;;8.70;81.26;95610.74;1668919;85;25839;-75
2022/09/28 04:05:52;;;;;;;7.37;4.40;;;;;;;8.67;81.27;95608.56;1713208;83;26731;-75
2022/09/28 04:08:19;;;;;;;5.12;4.62;;;;;;;8.64;81.22;95615.77;1684893;84;26716;-77
2022/09/28 04:10:46;;;;;;;6.37;4.47;;;;;;;8.62;81.29;95600.39;1704626;84;25886;-75
2022/09/28 04:13:13;;;;;;;6.45;4.42;;;;;;;8.60;81.30;95606.53;1704956;84;27381;-74
2022/09/28 04:15:39;;;;;;;6.60;4.37;;;;;;;8.54;81.09;95611.55;1705008;84;25734;-77
2022/09/28 04:18:09;;;;;;;6.87;4.50;;;;;;;8.48;81.14;95612.50;1704950;84;25762;-75
2022/09/28 04:20:36;;;;;;;6.85;4.65;;;;;;;8.50;81.16;95617.12;1619867;88;25849;-75
2022/09/28 04:23:03;;;;;;;5.08;4.33;;;;;;;8.49;81.00;95616.30;1621094;88;25968;-76
2022/09/28 04:25:29;;;;;;;6.60;3.70;;;;;;;8.47;80.94;95618.94;1621097;88;28301;-76
2022/09/28 04:30:31;;;;;;;4.75;3.47;;;;;;;8.35;80.62;95618.17;1551736;92;25813;-75
2022/09/28 04:32:57;;;;;;;7.80;3.87;;;;;;;8.26;80.62;95620.41;1551901;92;26378;-75
2022/09/28 04:35:24;;;;;;;4.92;4.10;;;;;;;8.20;80.63;95618.17;1551535;92;25563;-76
2022/09/28 04:37:52;;;;;;;6.83;5.05;;;;;;;8.06;80.43;95618.16;1551509;92;27567;-76
2022/09/28 04:40:18;;;;;;;7.30;4.75;;;;;;;8.01;80.69;95627.97;1551670;92;25853;-75
2022/09/28 04:42:55;;;;;;;5.17;4.25;;;;;;;7.97;80.58;95634.34;1551712;92;25919;-75
2022/09/28 04:45:25;;;;;;;4.90;4.08;;;;;;;7.98;80.71;95637.84;1550274;92;25851;-75
2022/09/28 04:47:51;;;;;;;7.03;4.60;;;;;;;7.94;80.72;95637.52;1551527;92;25858;-76
2022/09/28 04:50:18;;;;;;;7.17;4.72;;;;;;;7.89;80.71;95634.72;1551727;92;28214;-76
2022/09/28 04:52:44;;;;;;;6.92;5.10;;;;;;;7.87;80.80;95638.17;1585513;89;25812;-75
2022/09/28 04:55:12;;;;;;;7.20;5.10;;;;;;;7.80;80.82;95638.31;1589313;90;26512;-75
2022/09/28 04:57:40;;;;;;;7.65;4.87;;;;;;;7.81;80.94;95643.16;1589242;89;25617;-74
2022/09/28 05:00:09;;;;;;;9.78;5.50;;;;;;;7.83;81.01;95637.03;1589540;90;25635;-76
2022/09/28 05:02:36;;;;;;;8.33;5.22;;;;;;;7.86;81.08;95642.72;1589341;90;27453;-75
2022/09/28 05:05:03;;;;;;;9.83;5.40;;;;;;;7.83;81.01;95647.25;1589248;90;25971;-76
2022/09/28 05:07:30;;;;;;;7.90;5.67;;;;;;;7.81;81.03;95643.16;1620260;85;25890;-76
2022/09/28 05:09:56;;;;;;;8.13;7.30;;;;;;;7.82;81.15;95649.64;1667931;85;26529;-75
2022/09/28 05:12:23;;;;;;;8.38;6.47;;;;;;;7.83;81.27;95639.72;1665911;86;25731;-75
2022/09/28 05:14:50;;;;;;;9.93;6.08;;;;;;;7.85;81.36;95639.74;1654120;86;27383;-75
2022/09/28 05:17:16;;;;;;;6.97;6.12;;;;;;;7.92;81.48;95643.66;1703747;81;25953;-75
2022/09/28 05:19:43;;;;;;;13.60;10.38;;;;;;;7.95;81.55;95644.53;1760355;81;25784;-76
2022/09/28 05:22:13;;;;;;;10.32;7.42;;;;;;;7.99;81.61;95648.88;1733634;82;25685;-75
2022/09/28 05:24:38;;;;;;;8.78;6.83;;;;;;;7.98;81.51;95652.09;1733420;82;25507;-76
2022/09/28 05:27:04;;;;;;;8.08;5.17;;;;;;;8.00;81.53;95655.38;1733651;82;27360;-75
2022/09/28 05:29:31;;;;;;;6.47;5.45;;;;;;;8.03;81.55;95653.56;1733092;82;26401;-74
2022/09/28 05:32:00;;;;;;;10.78;5.58;;;;;;;8.02;81.53;95650.58;1733270;82;25702;-74
2022/09/28 05:34:26;;;;;;;7.95;5.28;;;;;;;8.02;81.58;95656.48;1741745;81;25759;-74
2022/09/28 05:36:53;;;;;;;5.20;4.50;;;;;;;8.04;81.60;95652.51;1741765;82;25764;-76
2022/09/28 05:39:20;;;;;;;7.65;4.58;;;;;;;8.07;81.54;95649.87;1741921;81;28255;-74
2022/09/28 05:41:47;;;;;;;7.10;4.83;;;;;;;8.08;81.55;95656.89;1741882;81;25663;-75
2022/09/28 05:44:13;;;;;;;8.68;5.50;;;;;;;8.08;81.46;95652.33;1741830;81;25892;-76
2022/09/28 05:46:40;;;;;;;8.70;5.28;;;;;;;8.09;81.52;95648.56;1741986;81;25720;-77
2022/09/28 05:49:06;;;;;;;6.35;3.87;;;;;;;8.13;81.65;95665.03;1741914;81;25703;-74
2022/09/28 05:51:33;;;;;;;6.15;4.20;;;;;;;8.17;81.62;95656.80;1741375;82;27405;-75
2022/09/28 05:54:00;;;;;;;5.92;4.20;;;;;;;8.19;81.61;95656.84;1741835;82;25682;-76
2022/09/28 05:56:31;;;;;;;4.22;2.98;;;;;;;8.21;81.64;95668.16;1741794;81;25760;-76
2022/09/28 05:58:58;;;;;;;6.17;3.22;;;;;;;8.22;81.57;95668.45;1741922;81;26458;-74
2022/09/28 06:01:25;;;;;;;5.95;2.87;;;;;;;8.25;81.66;95665.29;1741816;81;25719;-76
2022/09/28 06:03:51;;;;;;;4.25;2.85;;;;;;;8.28;81.54;95664.00;1741997;82;27370;-75
2022/09/28 06:06:18;;;;;;;2.67;2.47;;;;;;;8.33;81.63;95661.98;1741776;81;25810;-75
2022/09/28 06:08:45;;;;;;;4.03;3.05;;;;;;;8.35;81.48;95659.84;1744476;81;25721;-75
2022/09/28 06:11:11;;;;;;;4.00;2.55;;;;;;;8.37;81.48;95655.87;1754869;81;25721;-77
2022/09/28 06:13:39;;;;;;;3.95;2.83;;;;;;;8.38;81.55;95656.69;1755225;81;25812;-74
2022/09/28 06:16:07;;;;;;;2.62;2.10;;;;;;;8.37;81.44;95653.70;1755128;81;28260;-75
2022/09/28 06:18:34;;;;;;;2.45;2.25;;;;;;;8.37;81.22;95653.18;1755029;81;25784;-75
2022/09/28 06:21:01;;;;;;;2.47;2.27;;;;;;;8.43;81.24;95651.42;1755311;81;25741;-74
2022/09/28 06:23:28;;;;;;;2.33;2.12;;;;;;;8.51;81.31;95656.40;1755325;81;25730;-75
2022/09/28 06:25:54;;;;;;;2.80;1.90;;;;;;;8.60;81.20;95655.77;1755236;81;25890;-75
2022/09/28 06:28:21;;;;;;;2.55;1.90;;;;;;;8.70;80.89;95655.13;1755216;81;27342;-74
2022/09/28 06:30:48;;;;;;;2.50;2.25;;;;;;;8.82;80.75;95657.75;1754932;81;25887;-76
2022/09/28 06:33:15;;;;;;;3.75;2.10;;;;;;;8.89;80.68;95655.74;1755354;81;26712;-76
2022/09/28 06:35:42;;;;;;;2.98;2.33;;;;;;;9.00;80.56;95657.02;1755353;81;26346;-75
2022/09/28 06:38:09;;;;;;;4.30;1.98;;;;;;;9.09;80.74;95654.72;1755056;81;25729;-76
2022/09/28 06:40:36;;;;;;;2.80;2.47;;;;;;;9.17;80.78;95648.14;1755383;81;27602;-75
2022/09/28 06:43:09;;;;;;;3.75;2.20;;;;;;;9.25;80.79;95649.06;1754938;81;25688;-76
2022/09/28 06:45:37;;;;;;;4.75;2.40;;;;;;;9.34;80.75;95635.47;1755453;81;25959;-75
2022/09/28 06:48:04;;;;;;;2.80;2.50;;;;;;;9.38;80.12;95629.88;1755124;81;26316;-75
2022/09/28 06:50:36;;;;;;;3.80;2.85;;;;;;;9.48;80.20;95621.13;1755262;81;26519;-74
2022/09/28 06:53:05;;;;;;;4.55;2.50;;;;;;;9.63;80.38;95620.01;1755534;81;27384;-76
2022/09/28 06:55:33;;;;;;;4.28;1.90;;;;;;;9.83;80.28;95618.92;1755357;81;25748;-75
2022/09/28 06:58:03;;;;;;;2.25;1.80;;;;;;;9.97;79.74;95625.58;1755022;81;25726;-75
2022/09/28 07:00:34;;;;;;;1.27;1.17;;;;;;;10.11;79.32;95624.14;1755140;81;26540;-76
2022/09/28 07:03:07;;;;;;;1.92;1.32;;;;;;;10.27;78.85;95627.84;1755352;81;25697;-76
2022/09/28 07:05:36;;;;;;;3.40;1.37;;;;;;;10.41;78.23;95626.91;1755394;81;27403;-76
2022/09/28 07:08:06;;;;;;;2.90;1.25;;;;;;;10.58;77.99;95630.88;1755229;81;25725;-75
2022/09/28 07:10:33;;;;;;;1.10;1.00;;;;;;;10.75;77.73;95635.63;1767978;80;25799;-77
2022/09/28 07:13:03;;;;;;;1.77;1.17;;;;;;;10.93;77.00;95639.32;1771608;80;26539;-76
2022/09/28 07:15:31;;;;;;;1.80;1.20;;;;;;;11.14;76.62;95647.88;1755245;81;25837;-76
2022/09/28 07:18:00;;;;;;;2.87;1.00;;;;;;;11.33;76.17;95640.73;1755065;80;27320;-75
2022/09/28 07:20:28;;;;;;;3.27;0.90;;;;;;;11.55;75.83;95648.19;1693992;83;25896;-76
2022/09/28 07:23:00;;;;;;;1.40;1.05;;;;;;;11.77;75.65;95650.79;1694114;84;25792;-76
2022/09/28 07:27:59;;;;;;;0.80;0.80;;;;;;;11.84;74.13;95653.53;1633327;87;25926;-75
2022/09/28 07:30:28;;;;;;;2.77;1.00;;;;;;;11.79;74.37;95661.63;1582717;90;27423;-76
2022/09/28 07:32:55;;;;;;;1.37;1.10;;;;;;;11.71;73.87;95671.52;1582712;90;26070;-75
2022/09/28 07:35:22;;;;;;;1.98;1.10;;;;;;;11.63;73.70;95672.02;1582964;90;26643;-77
2022/09/28 07:37:49;;;;;;;1.98;1.30;;;;;;;11.61;73.52;95667.41;1582596;90;26614;-76
2022/09/28 07:43:05;;;;;;;1.67;1.17;;;;;;;11.68;73.25;95661.26;1582685;90;27453;-75
2022/09/28 07:45:35;;;;;;;1.60;1.50;;;;;;;11.78;73.66;95664.59;1582964;90;25826;-75
2022/09/28 07:48:02;;;;;;;3.02;1.45;;;;;;;11.78;73.28;95669.45;1582519;90;25877;-75
2022/09/28 07:50:29;;;;;;;1.62;1.25;;;;;;;11.86;73.03;95668.14;1582651;90;25877;-76
2022/09/28 07:52:57;;;;;;;2.92;1.07;;;;;;;11.96;72.45;95663.32;1583004;90;25964;-76
2022/09/28 07:55:24;;;;;;;1.15;1.05;;;;;;;11.92;71.93;95652.23;1582448;90;28347;-75
2022/09/28 07:58:00;;;;;;;1.60;1.27;;;;;;;11.92;72.26;95648.19;1582670;89;25567;-76
2022/09/28 08:00:24;;;;;;;3.95;1.12;;;;;;;12.11;71.89;95656.65;1580070;90;25830;-76
2022/09/28 08:02:51;;;;;;;2.12;1.10;;;;;;;12.11;71.25;95649.89;1582512;90;25963;-76
2022/09/28 08:05:18;;;;;;;1.72;0.90;;;;;;;12.48;71.34;95646.52;1582501;89;25922;-76
2022/09/28 08:07:45;;;;;;;2.95;1.00;;;;;;;12.97;70.75;95650.16;1582870;90;27588;-76
2022/09/28 08:10:12;;;;;;;2.52;1.02;;;;;;;13.40;70.61;95650.77;1584754;89;26026;-76
2022/09/28 08:12:40;;;;;;;1.80;0.70;;;;;;;13.80;69.75;95646.64;1586910;89;26602;-76
2022/09/28 08:17:36;;;;;;;1.15;0.80;;;;;;;14.00;68.27;95647.98;1533722;93;25809;-76
2022/09/28 08:22:49;;;;;;;1.25;1.00;;;;;;;14.08;67.58;95640.35;1538090;90;25843;-78
2022/09/28 08:25:16;;;;;;;0.90;0.72;;;;;;;14.19;66.67;95639.23;1624031;87;25718;-77
2022/09/28 08:27:42;;;;;;;2.60;1.07;;;;;;;14.08;66.27;95645.78;1691791;83;25779;-77
2022/09/28 08:30:10;;;;;;;1.55;0.60;;;;;;;14.02;66.25;95634.92;1673871;85;25716;-80
2022/09/28 08:32:37;;;;;;;1.10;0.70;;;;;;;13.98;65.63;95648.80;1719190;83;27438;-77
2022/09/28 08:35:05;;;;;;;2.40;0.80;;;;;;;13.86;65.16;95653.70;1673534;85;25542;-77
2022/09/28 08:37:31;;;;;;;1.30;0.80;;;;;;;13.74;64.93;95647.76;1719067;83;25794;-77
2022/09/28 08:39:58;;;;;;;1.20;0.50;;;;;;;13.57;64.42;95642.62;1673597;85;26580;-77
2022/09/28 08:42:42;;;;;;;0.85;0.57;;;;;;;13.50;64.53;95645.34;1719246;83;25792;-76
2022/09/28 08:45:18;;;;;;;0.82;0.62;;;;;;;13.52;64.72;95640.47;1673705;85;27398;-80
2022/09/28 08:51:05;;;;;;;0.82;0.70;;;;;;;13.80;64.30;95635.80;1592697;90;25440;-77
2022/09/28 08:53:51;;;;;;;;;;;;;;;14.23;64.69;95624.03;1568597;91;26619;-79
2022/09/28 08:56:29;;;;;;;0.70;0.70;;;;;;;14.69;63.55;95614.59;1566686;91;25814;-80
2022/09/28 08:59:01;;;;;;;0.60;0.60;;;;;;;15.11;63.67;95618.66;1566448;91;27497;-79
2022/09/28 09:01:33;;;;;;;0.80;0.50;;;;;;;15.50;63.22;95616.71;1566488;91;25759;-80
2022/09/28 09:04:00;;;;;;;3.62;0.60;;;;;;;15.87;61.83;95611.22;1566520;91;25880;-79
2022/09/28 09:06:38;;;;;;;2.67;0.70;;;;;;;16.07;61.87;95605.55;1546329;91;26571;-80
2022/09/28 09:09:22;;;;;;;1.32;0.60;;;;;;;16.36;61.28;95600.59;1561239;91;25846;-78
2022/09/28 09:12:00;;;;;;;2.55;0.70;;;;;;;16.74;60.96;95596.85;1534531;93;27484;-78
2022/09/28 09:14:55;;;;;;;2.15;0.60;;;;;;;17.09;60.13;95602.88;1524242;93;26021;-80
2022/09/28 09:18:03;;;;;;;0.53;0.53;;;;;;;17.30;59.89;95605.54;1556656;92;25879;-80
2022/09/28 09:20:53;;;;;;;0.50;0.45;;;;;;;17.47;58.86;95605.81;1564806;90;25871;-78
2022/09/28 09:23:39;;;;;;;1.05;0.50;;;;;;;17.44;57.96;95610.49;1572396;90;26115;-81
2022/09/28 09:26:19;;;;;;;2.60;0.40;;;;;;;17.49;57.57;95615.88;1572231;90;27442;-81
2022/09/28 09:29:07;;;;;;;0.75;0.50;;;;;;;17.68;57.20;95612.31;1572467;90;25876;-79
2022/09/28 09:31:58;;;;;;;0.80;0.50;;;;;;;17.90;57.07;95615.17;1571111;90;25895;-80
2022/09/28 09:34:34;;;;;;;2.85;0.50;;;;;;;18.05;56.38;95612.17;1511448;94;25758;-80
2022/09/28 09:37:35;;;;;;;1.75;0.40;;;;;;;17.99;55.69;95610.67;1512715;92;25975;-78
2022/09/28 09:40:34;;;;;;;0.75;0.40;;;;;;;18.07;55.34;95615.97;1486896;95;27500;-79
2022/09/28 09:43:27;;;;;;;0.40;0.28;;;;;;;18.10;54.72;95621.64;1457647;98;25966;-79
2022/09/28 09:46:11;;;;;;;1.30;0.40;;;;;;;18.14;54.72;95626.73;1521638;92;25875;-79
2022/09/28 09:49:13;;;;;;;1.45;0.20;;;;;;;18.09;53.96;95632.86;1564009;88;25788;-80
2022/09/28 09:52:00;;;;;;;4.20;0.50;;;;;;;17.87;53.54;95639.00;1609240;89;25767;-80
2022/09/28 09:54:44;;;;;;;0.50;0.30;;;;;;;17.56;53.42;95629.93;1584903;90;27413;-77
2022/09/28 09:57:17;;;;;;;2.00;0.40;;;;;;;17.12;53.08;95635.01;1460783;97;25883;-77
2022/09/28 09:59:47;;;;;;;0.40;0.20;;;;;;;16.89;53.65;95629.34;1459185;97;25858;-78
2022/09/28 10:02:27;;;;;;;0.35;0.35;;;;;;;16.71;53.35;95627.95;1460625;97;25958;-77
2022/09/28 10:05:07;;;;;;;2.47;0.50;;;;;;;16.40;53.40;95643.84;1459031;97;25972;-77
2022/09/28 10:07:44;;;;;;;0.40;0.40;;;;;;;16.12;53.36;95622.38;1399004;100;27437;-76
2022/09/28 10:10:19;;;;;;;0.35;0.35;;;;;;;16.00;53.76;95626.87;1396854;100;25571;-77
2022/09/28 10:12:47;;;;;;;2.08;0.62;;;;;;;15.98;53.91;95635.86;1387566;101;26024;-76
2022/09/28 10:15:19;;;;;;;0.60;0.23;;;;;;;15.83;53.87;95631.93;1420247;101;25870;-78
2022/09/28 10:17:46;;;;;;;0.33;0.33;;;;;;;15.78;53.86;95621.12;1417975;100;25916;-76
2022/09/28 10:20:15;;;;;;;0.40;0.37;;;;;;;15.69;54.24;95628.28;1444425;96;27599;-78
2022/09/28 10:22:43;;;;;;;3.12;0.57;;;;;;;15.69;54.57;95624.20;1467531;96;25926;-77
2022/09/28 10:25:12;;;;;;;3.25;0.60;;;;;;;15.68;54.52;95630.19;1463926;97;25970;-75
2022/09/28 10:27:44;;;;;;;0.37;0.37;;;;;;;15.57;54.37;95628.66;1464220;97;25903;-78
2022/09/28 10:30:17;;;;;;;0.47;0.47;;;;;;;15.64;54.84;95625.59;1463940;97;25844;-75
2022/09/28 10:32:47;;;;;;;0.55;0.47;;;;;;;15.69;54.80;95620.13;1420450;99;27513;-76
2022/09/28 10:35:27;;;;;;;0.70;0.30;;;;;;;15.83;55.29;95614.25;1420573;100;25923;-77
2022/09/28 10:38:05;;;;;;;0.82;0.40;;;;;;;15.91;54.75;95601.39;1420795;100;26687;-76
2022/09/28 10:40:48;;;;;;;0.72;0.53;;;;;;;15.98;54.70;95605.93;1420777;100;25917;-77
2022/09/28 10:43:23;;;;;;;1.82;0.42;;;;;;;15.99;54.57;95601.30;1420732;100;25863;-76
2022/09/28 10:46:07;;;;;;;0.82;0.50;;;;;;;15.98;54.63;95601.84;1378130;103;27494;-76
2022/09/28 10:49:13;;;;;;;1.32;0.60;;;;;;;15.98;54.35;95594.23;1377794;104;25973;-77
2022/09/28 10:51:48;;;;;;;0.68;0.50;;;;;;;15.93;54.26;95589.67;1405724;100;25920;-76
2022/09/28 10:54:22;;;;;;;0.45;0.30;;;;;;;15.91;54.22;95590.51;1401411;102;26581;-78
2022/09/28 10:56:51;;;;;;;0.53;0.40;;;;;;;15.84;53.92;95585.95;1394683;102;25826;-78
2022/09/28 10:59:40;;;;;;;0.75;0.40;;;;;;;15.77;53.64;95590.92;1393704;101;29004;-76
2022/09/28 11:02:33;;;;;;;4.33;0.80;;;;;;;15.70;53.74;95587.72;1384176;102;26305;-76
2022/09/28 11:05:04;;;;;;;0.75;0.50;;;;;;;15.69;54.18;95581.50;1397863;100;25837;-79
2022/09/28 11:07:33;;;;;;;1.02;0.60;;;;;;;15.86;54.30;95581.03;1408104;100;25931;-80
2022/09/28 11:10:01;;;;;;;1.10;0.50;;;;;;;16.01;54.44;95574.06;1415068;100;25833;-79
2022/09/28 11:12:44;;;;;;;0.40;0.37;;;;;;;16.23;54.28;95568.62;1394801;102;27546;-80
2022/09/28 11:15:21;;;;;;;2.60;0.60;;;;;;;16.39;53.81;95570.06;1355416;104;25917;-80
2022/09/28 11:17:48;;;;;;;0.30;0.30;;;;;;;16.56;53.55;95573.09;1355479;104;26047;-79
2022/09/28 11:20:29;;;;;;;0.70;0.45;;;;;;;16.69;53.26;95575.11;1356940;104;26079;-80
2022/09/28 11:23:06;;;;;;;0.53;0.42;;;;;;;16.75;52.74;95573.14;1399622;100;26000;-81
2022/09/28 11:25:32;;;;;;;1.05;0.45;;;;;;;16.77;52.54;95571.75;1413629;101;27504;-80
2022/09/28 11:30:50;;;;;;;0.23;0.20;;;;;;;16.93;52.29;95564.95;1371116;104;25883;-79
2022/09/28 11:33:34;;;;;;;0.78;0.33;;;;;;;16.90;52.16;95562.80;1370876;104;25967;-79
2022/09/28 11:36:12;;;;;;;0.25;0.17;;;;;;;16.95;52.06;95550.22;1345636;104;25480;-78
2022/09/28 11:39:02;;;;;;;0.72;0.50;;;;;;;17.01;51.51;95540.88;1334419;107;27521;-80
2022/09/28 11:41:58;;;;;;;0.78;0.30;;;;;;;17.06;51.59;95535.31;1370951;104;25897;-79
2022/09/28 11:44:45;;;;;;;0.45;0.30;;;;;;;17.15;51.52;95526.71;1371253;104;25870;-80
2022/09/28 11:47:38;;;;;;;0.50;0.40;;;;;;;17.22;51.11;95517.61;1370902;103;25955;-80
2022/09/28 11:50:19;;;;;;;0.93;0.30;;;;;;;17.28;50.94;95508.22;1372224;101;25961;-81
2022/09/28 11:53:10;;;;;;;0.23;0.23;;;;;;;17.41;51.08;95508.00;1427481;99;27491;-80
2022/09/28 11:56:34;;;;;;;1.60;0.30;;;;;;;17.52;51.28;95521.14;1425303;100;25882;-78
2022/09/28 11:59:29;;;;;;;0.82;0.28;;;;;;;17.64;51.15;95522.86;1425486;100;26628;-77
2022/09/28 12:02:03;;;;;;;0.40;0.30;;;;;;;17.80;51.03;95521.22;1437668;97;26505;-79
2022/09/28 12:04:56;;;;;;;1.72;0.25;;;;;;;17.93;50.75;95514.95;1448691;98;25888;-80
2022/09/28 12:07:33;;;;;;;0.75;0.40;;;;;;;18.03;50.54;95512.57;1450642;98;28382;-79
2022/09/28 12:10:11;;;;;;;0.40;0.30;;;;;;;18.11;50.47;95508.59;1448668;96;25937;-78
2022/09/28 12:13:03;;;;;;;0.35;0.15;;;;;;;18.23;50.69;95512.17;1470864;97;26553;-79
2022/09/28 12:15:46;;;;;;;0.35;0.30;;;;;;;18.27;50.01;95518.61;1472965;95;25875;-78
2022/09/28 12:18:23;;;;;;;0.35;0.33;;;;;;;18.24;49.46;95499.55;1468394;96;25871;-78
2022/09/28 12:20:55;;;;;;;0.20;0.20;;;;;;;18.25;49.35;95497.63;1424460;99;28264;-78
2022/09/28 12:23:28;;;;;;;0.85;0.33;;;;;;;18.24;49.32;95494.09;1424631;100;25936;-78
2022/09/28 12:25:59;;;;;;;;;;;;;;;18.24;49.13;95489.98;1351178;105;25915;-79
2022/09/28 12:28:37;;;;;;;1.42;0.47;;;;;;;18.25;48.17;95492.97;1364851;104;25701;-78
2022/09/28 12:31:16;;;;;;;0.72;0.50;;;;;;;18.28;49.14;95490.20;1366397;104;25962;-78